Time,TemperatureF,DewpointF,PressureIn,WindDirection,WindDirectionDegrees,WindSpeedMPH,WindSpeedGustMPH,Humidity,HourlyPrecipIn,Conditions,Clouds,dailyrainin,SoftwareType,DateUTC
2013-08-26 00:23:00,79.0,72.0,29.96,SW,222,10.0,14.0,80,0.00,,,0.00,,2013-08-26 05:23:00,
2013-08-26 00:52:00,79.0,72.0,29.98,SW,228,7.0,12.0,79,0.00,,,0.00,,2013-08-26 05:52:00,
2013-08-26 01:12:00,79.0,72.0,29.98,SW,234,7.0,12.0,78,0.00,,,0.00,,2013-08-26 06:12:00,
2013-08-26 01:21:00,79.0,71.0,29.99,SW,231,9.0,16.0,77,0.00,,,0.00,,2013-08-26 06:21:00,
2013-08-26 01:42:00,79.0,72.0,29.98,SSW,210,7.0,14.0,78,0.00,,,0.00,,2013-08-26 06:42:00,
2013-08-26 01:52:00,78.0,72.0,29.98,SW,215,7.0,11.0,81,0.00,,,0.00,,2013-08-26 06:52:00,
2013-08-26 02:22:00,77.0,71.0,29.97,SSW,202,7.0,10.0,82,0.00,,,0.00,,2013-08-26 07:22:00,
2013-08-26 02:52:00,76.0,70.0,29.97,SSW,209,7.0,9.0,83,0.00,,,0.00,,2013-08-26 07:52:00,
2013-08-26 03:12:00,77.0,71.0,29.97,SSW,207,8.0,11.0,83,0.00,,,0.00,,2013-08-26 08:12:00,
2013-08-26 03:22:00,77.0,71.0,29.97,SSW,205,9.0,12.0,83,0.00,,,0.00,,2013-08-26 08:22:00,
2013-08-26 03:52:00,77.0,71.0,29.98,SSW,210,5.0,13.0,83,0.00,,,0.00,,2013-08-26 08:52:00,
2013-08-26 04:21:00,77.0,71.0,29.97,SW,229,7.0,11.0,83,0.00,,,0.00,,2013-08-26 09:21:00,
2013-08-26 04:54:00,75.0,71.0,29.97,SSW,208,3.0,7.0,86,0.00,,,0.00,,2013-08-26 09:54:00,
2013-08-26 05:23:00,75.0,71.0,30.00,SSW,211,1.0,4.0,88,0.00,,,0.00,,2013-08-26 10:23:00,
2013-08-26 05:52:00,75.0,71.0,30.01,SSW,211,0.0,2.0,88,0.00,,,0.00,,2013-08-26 10:52:00,
2013-08-26 06:22:00,74.0,71.0,29.99,SW,227,2.0,6.0,90,0.00,,,0.00,,2013-08-26 11:22:00,
2013-08-26 06:52:00,75.0,71.0,30.01,SSW,210,3.0,6.0,88,0.00,,,0.00,,2013-08-26 11:52:00,
2013-08-26 07:21:00,75.0,72.0,30.02,SW,225,0.0,4.0,89,0.00,,,0.00,,2013-08-26 12:21:00,
2013-08-26 07:52:00,75.0,72.0,30.03,SW,217,2.0,4.0,89,0.00,,,0.00,,2013-08-26 12:52:00,
2013-08-26 08:21:00,75.0,72.0,30.04,SSW,211,0.0,3.0,90,0.00,,,0.00,,2013-08-26 13:21:00,
2013-08-26 08:52:00,75.0,72.0,30.05,ENE,72,6.0,11.0,90,0.00,,,0.00,,2013-08-26 13:52:00,
2013-08-26 09:22:00,77.0,73.0,30.04,East,87,7.0,13.0,87,0.00,,,0.00,,2013-08-26 14:22:00,
2013-08-26 09:52:00,80.0,74.0,30.03,ESE,111,9.0,13.0,82,0.00,,,0.00,,2013-08-26 14:52:00,
2013-08-26 10:22:00,81.0,74.0,30.03,ESE,114,9.0,15.0,80,0.00,,,0.00,,2013-08-26 15:22:00,
2013-08-26 10:35:00,81.0,74.0,30.03,ESE,114,9.0,15.0,80,0.00,,,0.00,,2013-08-26 15:35:00,
2013-08-26 10:59:00,82.0,74.0,30.02,SE,133,8.0,15.0,78,0.00,,,0.00,,2013-08-26 15:59:00,
2013-08-26 11:29:00,83.0,74.0,30.01,SE,146,7.0,10.0,75,0.00,,,0.00,,2013-08-26 16:29:00,
2013-08-26 11:59:00,85.0,75.0,30.01,SSE,154,8.0,15.0,71,0.00,,,0.00,,2013-08-26 16:59:00,
2013-08-26 12:24:00,85.0,75.0,30.00,SSW,194,6.0,13.0,73,0.00,,,0.00,,2013-08-26 17:24:00,
2013-08-26 12:53:00,87.0,75.0,29.98,SSW,203,12.0,16.0,68,0.00,,,0.00,,2013-08-26 17:53:00,
2013-08-26 13:12:00,87.0,75.0,29.98,SW,217,9.0,16.0,67,0.00,,,0.00,,2013-08-26 18:12:00,
2013-08-26 13:21:00,87.0,75.0,29.98,SSW,196,10.0,17.0,67,0.00,,,0.00,,2013-08-26 18:21:00,
2013-08-26 13:52:00,88.0,75.0,29.96,South,184,8.0,17.0,66,0.00,,,0.00,,2013-08-26 18:52:00,
2013-08-26 14:22:00,89.0,75.0,29.95,SW,227,9.0,18.0,64,0.00,,,0.00,,2013-08-26 19:22:00,
2013-08-26 14:52:00,90.0,76.0,29.94,SSW,211,11.0,16.0,63,0.00,,,0.00,,2013-08-26 19:52:00,
2013-08-26 15:22:00,91.0,76.0,29.93,SSW,208,13.0,21.0,61,0.00,,,0.00,,2013-08-26 20:22:00,
2013-08-26 15:52:00,91.0,77.0,29.92,SSW,201,11.0,18.0,63,0.00,,,0.00,,2013-08-26 20:52:00,
2013-08-26 16:22:00,91.0,75.0,29.92,WSW,244,12.0,17.0,60,0.00,,,0.00,,2013-08-26 21:22:00,
2013-08-26 16:55:00,91.0,76.0,29.91,SSW,201,8.0,15.0,61,0.00,,,0.00,,2013-08-26 21:55:00,
2013-08-26 17:26:00,91.0,77.0,29.91,SSW,193,6.0,10.0,63,0.00,,,0.00,,2013-08-26 22:26:00,
2013-08-26 17:53:00,92.0,77.0,29.91,SSW,207,6.0,14.0,61,0.00,,,0.00,,2013-08-26 22:53:00,
2013-08-26 18:22:00,92.0,76.0,29.90,SSW,202,9.0,14.0,59,0.00,,,0.00,,2013-08-26 23:22:00,
2013-08-26 18:52:00,91.0,76.0,29.88,SSW,201,8.0,16.0,62,0.00,,,0.00,,2013-08-26 23:52:00,
2013-08-26 19:21:00,89.0,76.0,29.89,SSW,207,6.0,11.0,66,0.00,,,0.00,,2013-08-27 00:21:00,
2013-08-26 19:52:00,86.0,76.0,29.90,SSW,201,4.0,6.0,72,0.00,,,0.00,,2013-08-27 00:52:00,
2013-08-26 20:22:00,85.0,76.0,29.89,SSW,211,5.0,10.0,74,0.00,,,0.00,,2013-08-27 01:22:00,
2013-08-26 20:52:00,85.0,76.0,29.89,SSW,200,7.0,13.0,74,0.00,,,0.00,,2013-08-27 01:52:00,
2013-08-26 21:12:00,85.0,76.0,29.91,SSW,199,4.0,7.0,74,0.00,,,0.00,,2013-08-27 02:12:00,
2013-08-26 21:21:00,85.0,76.0,29.91,SSW,199,4.0,7.0,74,0.00,,,0.00,,2013-08-27 02:21:00,
2013-08-26 21:52:00,84.0,76.0,29.90,South,190,6.0,10.0,77,0.00,,,0.00,,2013-08-27 02:52:00,
2013-08-26 22:22:00,83.0,76.0,29.89,SW,221,7.0,10.0,79,0.00,,,0.00,,2013-08-27 03:22:00,
2013-08-26 22:44:00,83.0,76.0,29.89,SSW,203,5.0,8.0,80,0.00,,,0.00,,2013-08-27 03:44:00,
2013-08-26 22:58:00,82.0,76.0,29.89,SSW,203,5.0,9.0,81,0.00,,,0.00,,2013-08-27 03:58:00,
2013-08-26 23:18:00,82.0,76.0,29.88,SSW,195,6.0,10.0,81,0.00,,,0.00,,2013-08-27 04:18:00,
2013-08-26 23:47:00,82.0,76.0,29.89,South,187,3.0,8.0,81,0.00,,,0.00,,2013-08-27 04:47:00,
2013-08-26 23:54:00,82.0,76.0,29.90,South,180,1.0,4.0,81,0.00,,,0.00,,2013-08-27 04:54:00,